Terminal Aerodrome Forecast
Issued by NWS

Home | Current Version | Previous Version | Text Only | Print | Product List | Glossary On
Versions: 1 2 3 4 5 6 7 8 9 10 11 12 13 14 15 16 17 18 19 20 21 22 23 24 25 26 27 28 29 30 31 32 33 34 35 36 37 38 39 40 41 42 43
000
FTAK31 PANC 082205 AAA
TAFADQ
TAF AMD
PADQ 082205Z 0822/0918 12015G25KT 6SM -SHRA OVC030
      TEMPO 0822/0824 4SM -SHRA BKN015
     FM090000 14015G25KT 6SM -SHRA BKN025
     FM090900 14013KT P6SM -SHRA BKN025=

USA.gov is the U.S. government's official web portal to all federal, state and local government web resources and services.